sensor_id;sensor_type;location;lat;lon;timestamp;P1;durP1;ratioP1;P2;durP2;ratioP2
10335;SDS011;5213;53.548;9.930;2023-07-24T00:01:12;6.40;;;4.53;;
10335;SDS011;5213;53.548;9.930;2023-07-24T00:03:37;5.22;;;4.68;;
10335;SDS011;5213;53.548;9.930;2023-07-24T00:06:03;4.80;;;4.40;;
10335;SDS011;5213;53.548;9.930;2023-07-24T00:08:28;5.65;;;4.35;;
10335;SDS011;5213;53.548;9.930;2023-07-24T00:10:54;4.95;;;4.47;;
10335;SDS011;5213;53.548;9.930;2023-07-24T00:13:20;6.28;;;4.78;;
10335;SDS011;5213;53.548;9.930;2023-07-24T00:15:45;6.13;;;4.50;;
10335;SDS011;5213;53.548;9.930;2023-07-24T00:18:11;5.25;;;4.75;;
10335;SDS011;5213;53.548;9.930;2023-07-24T00:20:36;4.80;;;4.30;;
10335;SDS011;5213;53.548;9.930;2023-07-24T00:23:02;5.88;;;4.43;;
10335;SDS011;5213;53.548;9.930;2023-07-24T00:25:28;5.18;;;4.43;;
10335;SDS011;5213;53.548;9.930;2023-07-24T00:27:53;4.63;;;4.20;;
10335;SDS011;5213;53.548;9.930;2023-07-24T00:30:19;4.97;;;4.45;;
10335;SDS011;5213;53.548;9.930;2023-07-24T00:32:45;9.30;;;4.57;;
10335;SDS011;5213;53.548;9.930;2023-07-24T00:35:10;5.25;;;4.80;;
10335;SDS011;5213;53.548;9.930;2023-07-24T00:37:36;4.97;;;4.53;;
10335;SDS011;5213;53.548;9.930;2023-07-24T00:40:02;5.50;;;4.70;;
10335;SDS011;5213;53.548;9.930;2023-07-24T00:42:28;4.93;;;4.47;;
10335;SDS011;5213;53.548;9.930;2023-07-24T00:44:54;4.55;;;4.15;;
10335;SDS011;5213;53.548;9.930;2023-07-24T00:47:20;5.47;;;4.97;;
10335;SDS011;5213;53.548;9.930;2023-07-24T00:49:46;5.78;;;4.43;;
10335;SDS011;5213;53.548;9.930;2023-07-24T00:52:13;5.00;;;4.60;;
10335;SDS011;5213;53.548;9.930;2023-07-24T00:54:40;5.35;;;4.82;;
10335;SDS011;5213;53.548;9.930;2023-07-24T00:57:07;4.60;;;4.20;;
10335;SDS011;5213;53.548;9.930;2023-07-24T00:59:32;5.93;;;4.00;;
10335;SDS011;5213;53.548;9.930;2023-07-24T01:01:58;4.93;;;4.22;;
10335;SDS011;5213;53.548;9.930;2023-07-24T01:04:24;4.88;;;4.47;;
10335;SDS011;5213;53.548;9.930;2023-07-24T01:06:50;4.07;;;3.83;;
10335;SDS011;5213;53.548;9.930;2023-07-24T01:09:15;5.53;;;4.20;;
10335;SDS011;5213;53.548;9.930;2023-07-24T01:11:44;4.47;;;4.18;;
10335;SDS011;5213;53.548;9.930;2023-07-24T01:14:16;4.70;;;4.20;;
10335;SDS011;5213;53.548;9.930;2023-07-24T01:16:47;5.07;;;4.35;;
10335;SDS011;5213;53.548;9.930;2023-07-24T01:22:46;5.72;;;4.30;;
10335;SDS011;5213;53.548;9.930;2023-07-24T01:25:00;5.50;;;4.03;;
10335;SDS011;5213;53.548;9.930;2023-07-24T01:27:45;4.88;;;4.40;;
10335;SDS011;5213;53.548;9.930;2023-07-24T01:30:11;5.43;;;4.38;;
10335;SDS011;5213;53.548;9.930;2023-07-24T01:32:39;4.80;;;4.40;;
10335;SDS011;5213;53.548;9.930;2023-07-24T01:35:05;4.88;;;4.47;;
10335;SDS011;5213;53.548;9.930;2023-07-24T01:37:31;5.68;;;4.63;;
10335;SDS011;5213;53.548;9.930;2023-07-24T01:39:58;7.10;;;4.90;;
10335;SDS011;5213;53.548;9.930;2023-07-24T01:42:25;5.05;;;4.55;;
10335;SDS011;5213;53.548;9.930;2023-07-24T01:44:54;7.32;;;4.82;;
10335;SDS011;5213;53.548;9.930;2023-07-24T01:47:20;5.18;;;4.20;;
10335;SDS011;5213;53.548;9.930;2023-07-24T01:49:46;4.75;;;4.35;;
10335;SDS011;5213;53.548;9.930;2023-07-24T01:52:12;6.13;;;4.97;;
10335;SDS011;5213;53.548;9.930;2023-07-24T01:54:38;5.78;;;4.75;;
10335;SDS011;5213;53.548;9.930;2023-07-24T01:57:04;4.85;;;4.43;;
10335;SDS011;5213;53.548;9.930;2023-07-24T01:59:30;4.93;;;4.53;;
10335;SDS011;5213;53.548;9.930;2023-07-24T02:01:56;4.72;;;4.38;;
10335;SDS011;5213;53.548;9.930;2023-07-24T02:04:21;4.82;;;4.38;;
10335;SDS011;5213;53.548;9.930;2023-07-24T02:06:48;6.13;;;4.30;;
10335;SDS011;5213;53.548;9.930;2023-07-24T02:09:14;4.78;;;4.38;;
10335;SDS011;5213;53.548;9.930;2023-07-24T02:11:40;4.85;;;4.32;;
10335;SDS011;5213;53.548;9.930;2023-07-24T02:14:06;4.97;;;4.57;;
10335;SDS011;5213;53.548;9.930;2023-07-24T02:16:32;5.10;;;4.70;;
10335;SDS011;5213;53.548;9.930;2023-07-24T02:18:57;5.25;;;4.78;;
10335;SDS011;5213;53.548;9.930;2023-07-24T02:21:23;4.82;;;4.43;;
10335;SDS011;5213;53.548;9.930;2023-07-24T02:23:48;5.30;;;4.90;;
10335;SDS011;5213;53.548;9.930;2023-07-24T02:26:14;5.07;;;4.70;;
10335;SDS011;5213;53.548;9.930;2023-07-24T02:28:40;5.60;;;5.00;;
10335;SDS011;5213;53.548;9.930;2023-07-24T02:31:05;5.20;;;4.70;;
10335;SDS011;5213;53.548;9.930;2023-07-24T02:33:31;5.75;;;4.80;;
10335;SDS011;5213;53.548;9.930;2023-07-24T02:35:57;5.93;;;5.15;;
10335;SDS011;5213;53.548;9.930;2023-07-24T02:38:22;5.93;;;5.32;;
10335;SDS011;5213;53.548;9.930;2023-07-24T02:40:48;5.95;;;5.45;;
10335;SDS011;5213;53.548;9.930;2023-07-24T02:43:14;5.40;;;4.90;;
10335;SDS011;5213;53.548;9.930;2023-07-24T02:45:40;5.97;;;5.45;;
10335;SDS011;5213;53.548;9.930;2023-07-24T02:48:05;5.72;;;5.20;;
10335;SDS011;5213;53.548;9.930;2023-07-24T02:50:32;8.05;;;6.00;;
10335;SDS011;5213;53.548;9.930;2023-07-24T02:52:58;5.82;;;5.32;;
10335;SDS011;5213;53.548;9.930;2023-07-24T02:55:24;6.43;;;5.80;;
10335;SDS011;5213;53.548;9.930;2023-07-24T02:57:49;6.15;;;5.65;;
10335;SDS011;5213;53.548;9.930;2023-07-24T03:00:15;7.13;;;6.43;;
10335;SDS011;5213;53.548;9.930;2023-07-24T03:02:42;5.90;;;5.50;;
10335;SDS011;5213;53.548;9.930;2023-07-24T03:05:07;5.78;;;5.28;;
10335;SDS011;5213;53.548;9.930;2023-07-24T03:07:33;5.50;;;5.00;;
10335;SDS011;5213;53.548;9.930;2023-07-24T03:09:59;5.20;;;4.80;;
10335;SDS011;5213;53.548;9.930;2023-07-24T03:12:24;5.28;;;4.78;;
10335;SDS011;5213;53.548;9.930;2023-07-24T03:14:50;6.15;;;5.25;;
10335;SDS011;5213;53.548;9.930;2023-07-24T03:17:16;5.22;;;4.82;;
10335;SDS011;5213;53.548;9.930;2023-07-24T03:19:41;5.35;;;4.82;;
10335;SDS011;5213;53.548;9.930;2023-07-24T03:22:07;5.45;;;4.95;;
10335;SDS011;5213;53.548;9.930;2023-07-24T03:24:33;5.45;;;4.93;;
10335;SDS011;5213;53.548;9.930;2023-07-24T03:26:59;5.63;;;5.13;;
10335;SDS011;5213;53.548;9.930;2023-07-24T03:29:25;5.45;;;4.95;;
10335;SDS011;5213;53.548;9.930;2023-07-24T03:31:51;5.97;;;5.40;;
10335;SDS011;5213;53.548;9.930;2023-07-24T03:34:17;5.57;;;5.07;;
10335;SDS011;5213;53.548;9.930;2023-07-24T03:36:43;5.53;;;4.75;;
10335;SDS011;5213;53.548;9.930;2023-07-24T03:39:09;5.25;;;4.75;;
10335;SDS011;5213;53.548;9.930;2023-07-24T03:41:35;5.70;;;5.20;;
10335;SDS011;5213;53.548;9.930;2023-07-24T03:44:00;6.78;;;5.30;;
10335;SDS011;5213;53.548;9.930;2023-07-24T03:46:26;5.75;;;5.25;;
10335;SDS011;5213;53.548;9.930;2023-07-24T03:48:52;6.38;;;5.78;;
10335;SDS011;5213;53.548;9.930;2023-07-24T03:51:17;5.90;;;5.40;;
10335;SDS011;5213;53.548;9.930;2023-07-24T03:53:43;6.43;;;5.82;;
10335;SDS011;5213;53.548;9.930;2023-07-24T03:56:08;7.53;;;6.05;;
10335;SDS011;5213;53.548;9.930;2023-07-24T03:58:34;7.15;;;6.47;;
10335;SDS011;5213;53.548;9.930;2023-07-24T04:00:59;6.93;;;6.22;;
10335;SDS011;5213;53.548;9.930;2023-07-24T04:03:25;8.10;;;6.28;;
10335;SDS011;5213;53.548;9.930;2023-07-24T04:05:51;7.47;;;6.40;;
10335;SDS011;5213;53.548;9.930;2023-07-24T04:08:16;9.05;;;6.05;;
10335;SDS011;5213;53.548;9.930;2023-07-24T04:10:42;7.70;;;6.22;;
10335;SDS011;5213;53.548;9.930;2023-07-24T04:13:07;6.60;;;6.00;;
10335;SDS011;5213;53.548;9.930;2023-07-24T04:15:33;7.07;;;6.32;;
10335;SDS011;5213;53.548;9.930;2023-07-24T04:17:59;7.15;;;6.07;;
10335;SDS011;5213;53.548;9.930;2023-07-24T04:20:24;6.80;;;6.20;;
10335;SDS011;5213;53.548;9.930;2023-07-24T04:22:50;6.70;;;6.10;;
10335;SDS011;5213;53.548;9.930;2023-07-24T04:25:15;7.03;;;5.82;;
10335;SDS011;5213;53.548;9.930;2023-07-24T04:27:41;7.18;;;6.00;;
10335;SDS011;5213;53.548;9.930;2023-07-24T04:30:07;6.35;;;5.75;;
10335;SDS011;5213;53.548;9.930;2023-07-24T04:32:33;6.57;;;5.97;;
10335;SDS011;5213;53.548;9.930;2023-07-24T04:34:58;6.00;;;5.50;;
10335;SDS011;5213;53.548;9.930;2023-07-24T04:37:24;6.68;;;5.75;;
10335;SDS011;5213;53.548;9.930;2023-07-24T04:39:50;6.10;;;5.50;;
10335;SDS011;5213;53.548;9.930;2023-07-24T04:42:15;5.75;;;5.25;;
10335;SDS011;5213;53.548;9.930;2023-07-24T04:44:41;5.82;;;5.32;;
10335;SDS011;5213;53.548;9.930;2023-07-24T04:47:06;5.40;;;4.90;;
10335;SDS011;5213;53.548;9.930;2023-07-24T04:49:32;5.35;;;4.93;;
10335;SDS011;5213;53.548;9.930;2023-07-24T04:51:58;5.38;;;4.70;;
10335;SDS011;5213;53.548;9.930;2023-07-24T04:54:24;4.75;;;4.35;;
10335;SDS011;5213;53.548;9.930;2023-07-24T04:56:50;5.03;;;4.55;;
10335;SDS011;5213;53.548;9.930;2023-07-24T04:59:16;4.95;;;4.55;;
10335;SDS011;5213;53.548;9.930;2023-07-24T05:01:42;5.35;;;4.85;;
10335;SDS011;5213;53.548;9.930;2023-07-24T05:04:07;5.07;;;4.68;;
10335;SDS011;5213;53.548;9.930;2023-07-24T05:06:33;5.63;;;5.07;;
10335;SDS011;5213;53.548;9.930;2023-07-24T05:09:00;5.10;;;4.68;;
10335;SDS011;5213;53.548;9.930;2023-07-24T05:11:26;4.88;;;4.45;;
10335;SDS011;5213;53.548;9.930;2023-07-24T05:13:52;4.63;;;4.28;;
10335;SDS011;5213;53.548;9.930;2023-07-24T05:16:17;5.97;;;4.88;;
10335;SDS011;5213;53.548;9.930;2023-07-24T05:18:43;6.47;;;4.78;;
10335;SDS011;5213;53.548;9.930;2023-07-24T05:21:09;4.82;;;4.32;;
10335;SDS011;5213;53.548;9.930;2023-07-24T05:23:34;5.13;;;4.70;;
10335;SDS011;5213;53.548;9.930;2023-07-24T05:26:01;4.40;;;4.00;;
10335;SDS011;5213;53.548;9.930;2023-07-24T05:28:28;5.90;;;4.70;;
10335;SDS011;5213;53.548;9.930;2023-07-24T05:30:55;4.40;;;4.10;;
10335;SDS011;5213;53.548;9.930;2023-07-24T05:33:21;4.95;;;4.55;;
10335;SDS011;5213;53.548;9.930;2023-07-24T05:35:48;4.60;;;4.20;;
10335;SDS011;5213;53.548;9.930;2023-07-24T05:38:14;5.38;;;4.50;;
10335;SDS011;5213;53.548;9.930;2023-07-24T05:40:40;4.65;;;4.25;;
10335;SDS011;5213;53.548;9.930;2023-07-24T05:43:06;4.53;;;4.10;;
10335;SDS011;5213;53.548;9.930;2023-07-24T05:45:31;5.10;;;4.10;;
10335;SDS011;5213;53.548;9.930;2023-07-24T05:47:57;5.30;;;4.70;;
10335;SDS011;5213;53.548;9.930;2023-07-24T05:50:22;4.80;;;4.40;;
10335;SDS011;5213;53.548;9.930;2023-07-24T05:52:48;5.15;;;4.40;;
10335;SDS011;5213;53.548;9.930;2023-07-24T05:55:13;4.28;;;3.97;;
10335;SDS011;5213;53.548;9.930;2023-07-24T05:57:39;4.70;;;4.30;;
10335;SDS011;5213;53.548;9.930;2023-07-24T06:00:05;4.55;;;4.15;;
10335;SDS011;5213;53.548;9.930;2023-07-24T06:02:31;6.05;;;4.82;;
10335;SDS011;5213;53.548;9.930;2023-07-24T06:04:57;5.15;;;4.63;;
10335;SDS011;5213;53.548;9.930;2023-07-24T06:07:23;5.35;;;4.85;;
10335;SDS011;5213;53.548;9.930;2023-07-24T06:09:48;7.00;;;5.03;;
10335;SDS011;5213;53.548;9.930;2023-07-24T06:12:14;5.10;;;4.60;;
10335;SDS011;5213;53.548;9.930;2023-07-24T06:14:40;4.72;;;4.32;;
10335;SDS011;5213;53.548;9.930;2023-07-24T06:17:06;5.85;;;4.70;;
10335;SDS011;5213;53.548;9.930;2023-07-24T06:19:31;4.05;;;3.75;;
10335;SDS011;5213;53.548;9.930;2023-07-24T06:21:57;4.90;;;4.50;;
10335;SDS011;5213;53.548;9.930;2023-07-24T06:24:22;5.03;;;4.55;;
10335;SDS011;5213;53.548;9.930;2023-07-24T06:26:49;5.10;;;4.60;;
10335;SDS011;5213;53.548;9.930;2023-07-24T06:29:15;4.95;;;4.55;;
10335;SDS011;5213;53.548;9.930;2023-07-24T06:31:41;5.13;;;4.72;;
10335;SDS011;5213;53.548;9.930;2023-07-24T06:34:07;6.60;;;4.60;;
10335;SDS011;5213;53.548;9.930;2023-07-24T06:36:32;5.00;;;4.60;;
10335;SDS011;5213;53.548;9.930;2023-07-24T06:38:58;4.93;;;4.57;;
10335;SDS011;5213;53.548;9.930;2023-07-24T06:41:24;4.97;;;4.50;;
10335;SDS011;5213;53.548;9.930;2023-07-24T06:43:50;6.68;;;4.88;;
10335;SDS011;5213;53.548;9.930;2023-07-24T06:46:16;5.38;;;4.97;;
10335;SDS011;5213;53.548;9.930;2023-07-24T06:48:42;5.28;;;4.88;;
10335;SDS011;5213;53.548;9.930;2023-07-24T06:51:08;5.63;;;5.13;;
10335;SDS011;5213;53.548;9.930;2023-07-24T06:53:33;5.07;;;4.68;;
10335;SDS011;5213;53.548;9.930;2023-07-24T06:55:59;5.20;;;4.80;;
10335;SDS011;5213;53.548;9.930;2023-07-24T06:58:25;5.95;;;4.60;;
10335;SDS011;5213;53.548;9.930;2023-07-24T07:00:51;5.40;;;5.00;;
10335;SDS011;5213;53.548;9.930;2023-07-24T07:03:16;5.50;;;5.00;;
10335;SDS011;5213;53.548;9.930;2023-07-24T07:05:43;5.30;;;4.90;;
10335;SDS011;5213;53.548;9.930;2023-07-24T07:08:08;5.30;;;4.80;;
10335;SDS011;5213;53.548;9.930;2023-07-24T07:10:34;5.32;;;4.93;;
10335;SDS011;5213;53.548;9.930;2023-07-24T07:12:59;5.80;;;5.30;;
10335;SDS011;5213;53.548;9.930;2023-07-24T07:15:25;5.38;;;4.95;;
10335;SDS011;5213;53.548;9.930;2023-07-24T07:17:51;5.10;;;4.70;;
10335;SDS011;5213;53.548;9.930;2023-07-24T07:20:16;5.43;;;5.03;;
10335;SDS011;5213;53.548;9.930;2023-07-24T07:22:42;5.60;;;5.10;;
10335;SDS011;5213;53.548;9.930;2023-07-24T07:25:08;5.45;;;5.00;;
10335;SDS011;5213;53.548;9.930;2023-07-24T07:27:34;4.80;;;4.50;;
10335;SDS011;5213;53.548;9.930;2023-07-24T07:29:59;5.22;;;4.72;;
10335;SDS011;5213;53.548;9.930;2023-07-24T07:32:25;6.55;;;4.60;;
10335;SDS011;5213;53.548;9.930;2023-07-24T07:34:52;4.88;;;4.47;;
10335;SDS011;5213;53.548;9.930;2023-07-24T07:37:17;5.10;;;4.70;;
10335;SDS011;5213;53.548;9.930;2023-07-24T07:39:43;5.25;;;4.78;;
10335;SDS011;5213;53.548;9.930;2023-07-24T07:42:09;5.45;;;5.05;;
10335;SDS011;5213;53.548;9.930;2023-07-24T07:44:34;5.47;;;5.07;;
10335;SDS011;5213;53.548;9.930;2023-07-24T07:47:00;5.15;;;4.75;;
10335;SDS011;5213;53.548;9.930;2023-07-24T07:49:25;5.78;;;5.28;;
10335;SDS011;5213;53.548;9.930;2023-07-24T07:51:51;6.47;;;5.85;;
10335;SDS011;5213;53.548;9.930;2023-07-24T07:54:17;5.13;;;4.72;;
10335;SDS011;5213;53.548;9.930;2023-07-24T07:56:42;5.28;;;4.88;;
10335;SDS011;5213;53.548;9.930;2023-07-24T07:59:08;5.40;;;4.90;;
10335;SDS011;5213;53.548;9.930;2023-07-24T08:01:35;5.68;;;5.20;;
10335;SDS011;5213;53.548;9.930;2023-07-24T08:04:04;5.70;;;5.13;;
10335;SDS011;5213;53.548;9.930;2023-07-24T08:06:30;5.38;;;4.97;;
10335;SDS011;5213;53.548;9.930;2023-07-24T08:08:55;5.47;;;5.07;;
10335;SDS011;5213;53.548;9.930;2023-07-24T08:11:21;5.45;;;5.05;;
10335;SDS011;5213;53.548;9.930;2023-07-24T08:13:46;5.57;;;5.15;;
10335;SDS011;5213;53.548;9.930;2023-07-24T08:16:13;5.68;;;5.28;;
10335;SDS011;5213;53.548;9.930;2023-07-24T08:18:43;6.80;;;5.43;;
10335;SDS011;5213;53.548;9.930;2023-07-24T08:21:10;5.80;;;5.30;;
10335;SDS011;5213;53.548;9.930;2023-07-24T08:23:35;6.10;;;5.60;;
10335;SDS011;5213;53.548;9.930;2023-07-24T08:26:01;6.32;;;5.82;;
10335;SDS011;5213;53.548;9.930;2023-07-24T08:28:27;5.95;;;5.45;;
10335;SDS011;5213;53.548;9.930;2023-07-24T08:30:59;6.07;;;5.68;;
10335;SDS011;5213;53.548;9.930;2023-07-24T08:33:26;6.13;;;5.63;;
10335;SDS011;5213;53.548;9.930;2023-07-24T08:35:59;6.30;;;5.80;;
10335;SDS011;5213;53.548;9.930;2023-07-24T08:38:26;5.80;;;5.40;;
10335;SDS011;5213;53.548;9.930;2023-07-24T08:41:11;5.90;;;5.45;;
10335;SDS011;5213;53.548;9.930;2023-07-24T08:43:39;5.93;;;5.43;;
10335;SDS011;5213;53.548;9.930;2023-07-24T08:46:07;6.30;;;5.78;;
10335;SDS011;5213;53.548;9.930;2023-07-24T08:48:43;7.05;;;6.43;;
10335;SDS011;5213;53.548;9.930;2023-07-24T08:51:10;6.50;;;6.00;;
10335;SDS011;5213;53.548;9.930;2023-07-24T08:53:41;6.78;;;6.18;;
10335;SDS011;5213;53.548;9.930;2023-07-24T08:56:09;7.10;;;6.50;;
10335;SDS011;5213;53.548;9.930;2023-07-24T08:58:37;6.45;;;5.95;;
10335;SDS011;5213;53.548;9.930;2023-07-24T09:01:04;6.80;;;6.00;;
10335;SDS011;5213;53.548;9.930;2023-07-24T09:03:31;6.18;;;5.68;;
10335;SDS011;5213;53.548;9.930;2023-07-24T09:05:58;6.70;;;6.07;;
10335;SDS011;5213;53.548;9.930;2023-07-24T09:08:33;6.22;;;5.72;;
10335;SDS011;5213;53.548;9.930;2023-07-24T09:11:04;6.10;;;5.60;;
10335;SDS011;5213;53.548;9.930;2023-07-24T09:13:30;6.63;;;6.03;;
10335;SDS011;5213;53.548;9.930;2023-07-24T09:15:57;7.03;;;6.30;;
10335;SDS011;5213;53.548;9.930;2023-07-24T09:18:24;6.45;;;5.95;;
10335;SDS011;5213;53.548;9.930;2023-07-24T09:20:50;6.70;;;6.20;;
10335;SDS011;5213;53.548;9.930;2023-07-24T09:23:16;6.45;;;5.85;;
10335;SDS011;5213;53.548;9.930;2023-07-24T09:25:53;6.32;;;5.82;;
10335;SDS011;5213;53.548;9.930;2023-07-24T09:28:19;6.53;;;5.93;;
10335;SDS011;5213;53.548;9.930;2023-07-24T09:30:53;6.65;;;6.05;;
10335;SDS011;5213;53.548;9.930;2023-07-24T09:33:21;6.15;;;5.65;;
10335;SDS011;5213;53.548;9.930;2023-07-24T09:35:58;7.03;;;6.40;;
10335;SDS011;5213;53.548;9.930;2023-07-24T09:38:24;6.40;;;5.90;;
10335;SDS011;5213;53.548;9.930;2023-07-24T09:40:52;6.38;;;5.88;;
10335;SDS011;5213;53.548;9.930;2023-07-24T09:43:22;6.88;;;6.25;;
10335;SDS011;5213;53.548;9.930;2023-07-24T09:45:50;6.65;;;6.15;;
10335;SDS011;5213;53.548;9.930;2023-07-24T09:48:17;6.10;;;5.60;;
10335;SDS011;5213;53.548;9.930;2023-07-24T09:50:45;6.55;;;5.97;;
10335;SDS011;5213;53.548;9.930;2023-07-24T09:53:13;5.70;;;5.30;;
10335;SDS011;5213;53.548;9.930;2023-07-24T09:56:01;6.25;;;5.75;;
10335;SDS011;5213;53.548;9.930;2023-07-24T09:58:29;6.65;;;6.05;;
10335;SDS011;5213;53.548;9.930;2023-07-24T10:00:59;6.28;;;5.78;;
10335;SDS011;5213;53.548;9.930;2023-07-24T10:03:27;5.72;;;5.22;;
10335;SDS011;5213;53.548;9.930;2023-07-24T10:05:53;5.88;;;5.28;;
10335;SDS011;5213;53.548;9.930;2023-07-24T10:08:19;6.20;;;5.70;;
10335;SDS011;5213;53.548;9.930;2023-07-24T10:10:45;6.15;;;5.55;;
10335;SDS011;5213;53.548;9.930;2023-07-24T10:13:11;6.00;;;5.50;;
10335;SDS011;5213;53.548;9.930;2023-07-24T10:15:40;6.25;;;5.72;;
10335;SDS011;5213;53.548;9.930;2023-07-24T10:18:07;5.97;;;5.47;;
10335;SDS011;5213;53.548;9.930;2023-07-24T10:20:38;6.00;;;5.50;;
10335;SDS011;5213;53.548;9.930;2023-07-24T10:23:06;5.70;;;5.13;;
10335;SDS011;5213;53.548;9.930;2023-07-24T10:25:37;6.45;;;5.85;;
10335;SDS011;5213;53.548;9.930;2023-07-24T10:28:09;5.60;;;5.20;;
10335;SDS011;5213;53.548;9.930;2023-07-24T10:30:37;5.50;;;5.10;;
10335;SDS011;5213;53.548;9.930;2023-07-24T10:38:09;6.00;;;5.50;;
10335;SDS011;5213;53.548;9.930;2023-07-24T10:40:35;5.93;;;5.43;;
10335;SDS011;5213;53.548;9.930;2023-07-24T10:43:05;6.05;;;5.55;;
10335;SDS011;5213;53.548;9.930;2023-07-24T10:46:08;5.25;;;4.85;;
10335;SDS011;5213;53.548;9.930;2023-07-24T10:48:27;5.78;;;5.35;;
10335;SDS011;5213;53.548;9.930;2023-07-24T10:50:52;5.70;;;5.20;;
10335;SDS011;5213;53.548;9.930;2023-07-24T10:53:19;7.97;;;6.50;;
10335;SDS011;5213;53.548;9.930;2023-07-24T10:55:46;5.72;;;4.88;;
10335;SDS011;5213;53.548;9.930;2023-07-24T10:58:12;5.30;;;4.82;;
10335;SDS011;5213;53.548;9.930;2023-07-24T11:00:39;6.10;;;5.60;;
10335;SDS011;5213;53.548;9.930;2023-07-24T11:03:09;5.38;;;4.97;;
10335;SDS011;5213;53.548;9.930;2023-07-24T11:05:39;5.45;;;4.93;;
10335;SDS011;5213;53.548;9.930;2023-07-24T11:08:10;6.28;;;4.68;;
10335;SDS011;5213;53.548;9.930;2023-07-24T11:10:59;5.30;;;4.88;;
10335;SDS011;5213;53.548;9.930;2023-07-24T11:13:26;5.38;;;4.80;;
10335;SDS011;5213;53.548;9.930;2023-07-24T11:15:53;4.65;;;4.32;;
10335;SDS011;5213;53.548;9.930;2023-07-24T11:18:20;5.13;;;4.65;;
10335;SDS011;5213;53.548;9.930;2023-07-24T11:20:48;4.70;;;4.22;;
10335;SDS011;5213;53.548;9.930;2023-07-24T11:23:17;5.03;;;4.55;;
10335;SDS011;5213;53.548;9.930;2023-07-24T11:25:43;4.90;;;4.50;;
10335;SDS011;5213;53.548;9.930;2023-07-24T11:28:11;5.22;;;4.82;;
10335;SDS011;5213;53.548;9.930;2023-07-24T11:30:38;4.88;;;4.38;;
10335;SDS011;5213;53.548;9.930;2023-07-24T11:33:05;4.75;;;4.38;;
10335;SDS011;5213;53.548;9.930;2023-07-24T11:35:32;4.93;;;4.45;;
10335;SDS011;5213;53.548;9.930;2023-07-24T11:37:59;8.15;;;5.43;;
10335;SDS011;5213;53.548;9.930;2023-07-24T11:40:32;7.28;;;5.25;;
10335;SDS011;5213;53.548;9.930;2023-07-24T11:43:01;5.45;;;4.95;;
10335;SDS011;5213;53.548;9.930;2023-07-24T11:45:29;5.40;;;5.00;;
10335;SDS011;5213;53.548;9.930;2023-07-24T11:47:55;5.70;;;5.30;;
10335;SDS011;5213;53.548;9.930;2023-07-24T11:50:21;5.68;;;5.28;;
10335;SDS011;5213;53.548;9.930;2023-07-24T11:52:48;5.72;;;5.32;;
10335;SDS011;5213;53.548;9.930;2023-07-24T11:55:29;5.43;;;5.03;;
10335;SDS011;5213;53.548;9.930;2023-07-24T11:58:00;5.15;;;4.85;;
10335;SDS011;5213;53.548;9.930;2023-07-24T12:00:26;5.15;;;4.78;;
10335;SDS011;5213;53.548;9.930;2023-07-24T12:02:53;5.40;;;5.00;;
10335;SDS011;5213;53.548;9.930;2023-07-24T12:05:23;4.80;;;4.50;;
10335;SDS011;5213;53.548;9.930;2023-07-24T12:07:49;5.63;;;5.18;;
10335;SDS011;5213;53.548;9.930;2023-07-24T12:10:24;5.60;;;5.22;;
10335;SDS011;5213;53.548;9.930;2023-07-24T12:12:54;5.88;;;5.35;;
10335;SDS011;5213;53.548;9.930;2023-07-24T12:15:23;5.63;;;5.22;;
10335;SDS011;5213;53.548;9.930;2023-07-24T12:17:48;5.15;;;4.85;;
10335;SDS011;5213;53.548;9.930;2023-07-24T12:20:14;4.88;;;4.57;;
10335;SDS011;5213;53.548;9.930;2023-07-24T12:22:40;5.20;;;4.80;;
10335;SDS011;5213;53.548;9.930;2023-07-24T12:25:06;5.07;;;4.68;;
10335;SDS011;5213;53.548;9.930;2023-07-24T12:27:32;5.28;;;4.88;;
10335;SDS011;5213;53.548;9.930;2023-07-24T12:29:59;5.32;;;4.93;;
10335;SDS011;5213;53.548;9.930;2023-07-24T12:32:25;4.57;;;4.30;;
10335;SDS011;5213;53.548;9.930;2023-07-24T12:34:51;4.45;;;4.15;;
10335;SDS011;5213;53.548;9.930;2023-07-24T12:37:18;4.60;;;4.30;;
10335;SDS011;5213;53.548;9.930;2023-07-24T12:39:44;4.80;;;4.50;;
10335;SDS011;5213;53.548;9.930;2023-07-24T12:42:11;4.70;;;4.40;;
10335;SDS011;5213;53.548;9.930;2023-07-24T12:44:36;5.20;;;4.80;;
10335;SDS011;5213;53.548;9.930;2023-07-24T12:47:03;4.55;;;4.25;;
10335;SDS011;5213;53.548;9.930;2023-07-24T12:49:29;5.70;;;5.30;;
10335;SDS011;5213;53.548;9.930;2023-07-24T12:51:55;5.32;;;4.93;;
10335;SDS011;5213;53.548;9.930;2023-07-24T12:54:21;5.18;;;4.80;;
10335;SDS011;5213;53.548;9.930;2023-07-24T12:56:47;5.15;;;4.72;;
10335;SDS011;5213;53.548;9.930;2023-07-24T12:59:13;5.05;;;4.65;;
10335;SDS011;5213;53.548;9.930;2023-07-24T13:01:39;5.50;;;5.07;;
10335;SDS011;5213;53.548;9.930;2023-07-24T13:04:04;5.05;;;4.65;;
10335;SDS011;5213;53.548;9.930;2023-07-24T13:06:30;5.90;;;5.38;;
10335;SDS011;5213;53.548;9.930;2023-07-24T13:08:56;5.63;;;5.13;;
10335;SDS011;5213;53.548;9.930;2023-07-24T13:11:21;5.82;;;5.30;;
10335;SDS011;5213;53.548;9.930;2023-07-24T13:13:47;4.47;;;4.18;;
10335;SDS011;5213;53.548;9.930;2023-07-24T13:16:15;4.75;;;4.35;;
10335;SDS011;5213;53.548;9.930;2023-07-24T13:18:41;4.97;;;4.30;;
10335;SDS011;5213;53.548;9.930;2023-07-24T13:21:06;4.32;;;4.03;;
10335;SDS011;5213;53.548;9.930;2023-07-24T13:23:32;4.82;;;4.40;;
10335;SDS011;5213;53.548;9.930;2023-07-24T13:25:58;4.38;;;4.07;;
10335;SDS011;5213;53.548;9.930;2023-07-24T13:28:24;4.63;;;4.28;;
10335;SDS011;5213;53.548;9.930;2023-07-24T13:30:49;4.30;;;4.00;;
10335;SDS011;5213;53.548;9.930;2023-07-24T13:33:15;4.43;;;4.05;;
10335;SDS011;5213;53.548;9.930;2023-07-24T13:35:41;4.85;;;4.55;;
10335;SDS011;5213;53.548;9.930;2023-07-24T13:38:06;4.60;;;4.18;;
10335;SDS011;5213;53.548;9.930;2023-07-24T13:40:35;4.90;;;4.50;;
10335;SDS011;5213;53.548;9.930;2023-07-24T13:43:01;4.70;;;4.40;;
10335;SDS011;5213;53.548;9.930;2023-07-24T13:45:27;5.38;;;4.50;;
10335;SDS011;5213;53.548;9.930;2023-07-24T13:47:53;4.60;;;4.20;;
10335;SDS011;5213;53.548;9.930;2023-07-24T13:50:19;4.82;;;4.15;;
10335;SDS011;5213;53.548;9.930;2023-07-24T13:52:45;4.30;;;4.00;;
10335;SDS011;5213;53.548;9.930;2023-07-24T13:55:10;4.20;;;3.88;;
10335;SDS011;5213;53.548;9.930;2023-07-24T13:57:36;4.30;;;4.00;;
10335;SDS011;5213;53.548;9.930;2023-07-24T14:00:02;4.15;;;3.85;;
10335;SDS011;5213;53.548;9.930;2023-07-24T14:02:28;4.40;;;4.00;;
10335;SDS011;5213;53.548;9.930;2023-07-24T14:04:54;3.90;;;3.70;;
10335;SDS011;5213;53.548;9.930;2023-07-24T14:07:19;4.20;;;3.80;;
10335;SDS011;5213;53.548;9.930;2023-07-24T14:09:45;4.30;;;3.88;;
10335;SDS011;5213;53.548;9.930;2023-07-24T14:12:10;4.35;;;3.92;;
10335;SDS011;5213;53.548;9.930;2023-07-24T14:14:36;4.28;;;3.97;;
10335;SDS011;5213;53.548;9.930;2023-07-24T14:17:02;4.47;;;4.10;;
10335;SDS011;5213;53.548;9.930;2023-07-24T14:19:28;4.85;;;4.20;;
10335;SDS011;5213;53.548;9.930;2023-07-24T14:21:53;4.95;;;4.55;;
10335;SDS011;5213;53.548;9.930;2023-07-24T14:24:19;4.35;;;4.05;;
10335;SDS011;5213;53.548;9.930;2023-07-24T14:26:45;4.10;;;3.70;;
10335;SDS011;5213;53.548;9.930;2023-07-24T14:29:10;4.40;;;4.10;;
10335;SDS011;5213;53.548;9.930;2023-07-24T14:31:37;4.40;;;4.00;;
10335;SDS011;5213;53.548;9.930;2023-07-24T14:34:03;4.97;;;4.47;;
10335;SDS011;5213;53.548;9.930;2023-07-24T14:36:29;4.38;;;4.07;;
10335;SDS011;5213;53.548;9.930;2023-07-24T14:39:02;4.70;;;4.30;;
10335;SDS011;5213;53.548;9.930;2023-07-24T14:41:28;4.40;;;4.00;;
10335;SDS011;5213;53.548;9.930;2023-07-24T14:43:53;4.32;;;4.00;;
10335;SDS011;5213;53.548;9.930;2023-07-24T14:46:19;4.82;;;4.47;;
10335;SDS011;5213;53.548;9.930;2023-07-24T14:48:45;4.50;;;4.20;;
10335;SDS011;5213;53.548;9.930;2023-07-24T14:51:10;4.78;;;4.40;;
10335;SDS011;5213;53.548;9.930;2023-07-24T14:53:36;4.53;;;4.22;;
10335;SDS011;5213;53.548;9.930;2023-07-24T14:56:02;4.90;;;4.50;;
10335;SDS011;5213;53.548;9.930;2023-07-24T14:58:28;5.18;;;4.88;;
10335;SDS011;5213;53.548;9.930;2023-07-24T15:00:54;5.60;;;5.07;;
10335;SDS011;5213;53.548;9.930;2023-07-24T15:03:19;5.95;;;5.43;;
10335;SDS011;5213;53.548;9.930;2023-07-24T15:05:46;5.55;;;5.10;;